Time;durP1;ratioP1;P1;durP2;ratioP2;P2;SDS_P1;SDS_P2;PMS_P1;PMS_P2;Temp;Humidity;BMP_temperature;BMP_pressure;BME280_temperature;BME280_humidity;BME280_pressure;Samples;Min_cycle;Max_cycle;Signal;HPM_P1;HPM_P2
2019/04/05 00:00:40;;;;;;;10.85;9.05;;;;;;;4.85;66.98926;93901.92;;;;
2019/04/05 00:01:41;;;;;;;10.85;9.05;;;;;;;4.85;66.98926;93901.92;;;;
2019/04/05 00:02:42;;;;;;;9.649999;8.700001;;;;;;;4.89;67.5791;93903.5;;;;
2019/04/05 00:03:43;;;;;;;9.649999;8.700001;;;;;;;4.89;67.5791;93903.5;;;;
2019/04/05 00:04:44;;;;;;;9.649999;8.700001;;;;;;;4.89;67.5791;93903.5;;;;
2019/04/05 00:05:46;;;;;;;9.649999;8.700001;;;;;;;4.89;67.5791;93903.5;;;;
2019/04/05 00:06:47;;;;;;;9.649999;8.700001;;;;;;;4.89;67.5791;93903.5;;;;
2019/04/05 00:07:48;;;;;;;9.649999;8.700001;;;;;;;4.89;67.5791;93903.5;;;;
2019/04/05 00:08:49;;;;;;;9.649999;8.700001;;;;;;;4.89;67.5791;93903.5;;;;
2019/04/05 00:09:50;;;;;;;9.649999;8.700001;;;;;;;4.89;67.5791;93903.5;;;;
2019/04/05 00:10:51;;;;;;;9.649999;8.700001;;;;;;;4.89;67.5791;93903.5;;;;
2019/04/05 00:11:52;;;;;;;9.649999;8.700001;;;;;;;4.89;67.5791;93903.5;;;;
2019/04/05 00:12:54;;;;;;;9.35;8.299999;;;;;;;4.84;67.10645;93902.06;;;;
2019/04/05 00:13:55;;;;;;;9.35;8.299999;;;;;;;4.84;67.10645;93902.06;;;;
2019/04/05 00:14:56;;;;;;;9.35;8.299999;;;;;;;4.84;67.10645;93902.06;;;;
2019/04/05 00:15:57;;;;;;;10.05;9.05;;;;;;;4.88;67.78027;93906.69;;;;
2019/04/05 00:16:58;;;;;;;10.05;9.05;;;;;;;4.88;67.78027;93906.69;;;;
2019/04/05 00:18:00;;;;;;;10.05;9.05;;;;;;;4.88;67.78027;93906.69;;;;
2019/04/05 00:19:01;;;;;;;10.05;9.05;;;;;;;4.88;67.78027;93906.69;;;;
2019/04/05 00:20:02;;;;;;;10.05;9.05;;;;;;;4.88;67.78027;93906.69;;;;
2019/04/05 00:21:04;;;;;;;10.05;9.05;;;;;;;4.88;67.78027;93906.69;;;;
2019/04/05 00:22:05;;;;;;;10.05;9.05;;;;;;;4.88;67.78027;93906.69;;;;
2019/04/05 00:23:06;;;;;;;10.05;9.05;;;;;;;4.88;67.78027;93906.69;;;;
2019/04/05 00:24:07;;;;;;;10.05;9.05;;;;;;;4.88;67.78027;93906.69;;;;
2019/04/05 00:25:08;;;;;;;10.05;9.05;;;;;;;4.88;67.78027;93906.69;;;;
2019/04/05 00:26:09;;;;;;;10;8.949999;;;;;;;4.85;67.53027;93920.53;;;;
2019/04/05 00:27:11;;;;;;;10;8.949999;;;;;;;4.85;67.53027;93920.53;;;;
2019/04/05 00:28:12;;;;;;;10;8.949999;;;;;;;4.85;67.53027;93920.53;;;;
2019/04/05 00:29:13;;;;;;;10.25;9.1;;;;;;;4.89;68.00195;93919.12;;;;
2019/04/05 00:30:14;;;;;;;10.25;9.1;;;;;;;4.89;68.00195;93919.12;;;;
2019/04/05 00:31:15;;;;;;;10.25;9.1;;;;;;;4.89;68.00195;93919.12;;;;
2019/04/05 00:32:16;;;;;;;10.25;9.1;;;;;;;4.89;68.00195;93919.12;;;;
2019/04/05 00:33:18;;;;;;;10.25;9.1;;;;;;;4.89;68.00195;93919.12;;;;
2019/04/05 00:34:19;;;;;;;10.25;9.1;;;;;;;4.89;68.00195;93919.12;;;;
2019/04/05 00:35:20;;;;;;;10.25;9.1;;;;;;;4.89;68.00195;93919.12;;;;
2019/04/05 00:36:21;;;;;;;10.25;9.1;;;;;;;4.89;68.00195;93919.12;;;;
2019/04/05 00:37:22;;;;;;;10.25;9.1;;;;;;;4.89;68.00195;93919.12;;;;
2019/04/05 00:38:23;;;;;;;10.25;9.1;;;;;;;4.89;68.00195;93919.12;;;;
2019/04/05 00:39:25;;;;;;;10.25;9.1;;;;;;;4.89;68.00195;93919.12;;;;
2019/04/05 00:40:26;;;;;;;10.25;9.1;;;;;;;4.89;68.00195;93919.12;;;;
2019/04/05 00:41:27;;;;;;;10.25;9.1;;;;;;;4.89;68.00195;93919.12;;;;
2019/04/05 00:42:28;;;;;;;10.85;9.1;;;;;;;4.9;68.13184;93935.35;;;;
2019/04/05 00:43:29;;;;;;;10.85;9.1;;;;;;;4.9;68.13184;93935.35;;;;
2019/04/05 00:44:30;;;;;;;10.85;9.1;;;;;;;4.9;68.13184;93935.35;;;;
2019/04/05 00:45:32;;;;;;;10.85;9.1;;;;;;;4.9;68.13184;93935.35;;;;
2019/04/05 00:46:33;;;;;;;10.85;9.1;;;;;;;4.9;68.13184;93935.35;;;;
2019/04/05 00:47:34;;;;;;;10.85;9.1;;;;;;;4.9;68.13184;93935.35;;;;
2019/04/05 00:48:35;;;;;;;10.85;9.1;;;;;;;4.9;68.13184;93935.35;;;;
2019/04/05 00:49:36;;;;;;;10.85;9.1;;;;;;;4.9;68.13184;93935.35;;;;
2019/04/05 00:50:37;;;;;;;10.85;9.1;;;;;;;4.9;68.13184;93935.35;;;;
2019/04/05 00:51:39;;;;;;;10.85;9.1;;;;;;;4.9;68.13184;93935.35;;;;
2019/04/05 00:52:40;;;;;;;10.85;9.1;;;;;;;4.9;68.13184;93935.35;;;;
2019/04/05 00:53:41;;;;;;;10.85;9.1;;;;;;;4.9;68.13184;93935.35;;;;
2019/04/05 00:54:42;;;;;;;10.85;9.1;;;;;;;4.9;68.13184;93935.35;;;;
2019/04/05 00:55:43;;;;;;;11.3;9.550001;;;;;;;4.87;68.27441;93939.01;;;;
2019/04/05 00:56:44;;;;;;;11.3;9.550001;;;;;;;4.87;68.27441;93939.01;;;;
2019/04/05 00:57:46;;;;;;;11.3;9.550001;;;;;;;4.87;68.27441;93939.01;;;;
2019/04/05 00:58:47;;;;;;;11.3;9.550001;;;;;;;4.87;68.27441;93939.01;;;;
2019/04/05 00:59:48;;;;;;;11.3;9.550001;;;;;;;4.87;68.27441;93939.01;;;;
2019/04/05 01:00:49;;;;;;;11.3;9.550001;;;;;;;4.87;68.27441;93939.01;;;;
2019/04/05 01:01:50;;;;;;;11.3;9.550001;;;;;;;4.87;68.27441;93939.01;;;;
2019/04/05 01:02:52;;;;;;;11.3;9.550001;;;;;;;4.87;68.27441;93939.01;;;;
2019/04/05 01:03:53;;;;;;;11.3;9.550001;;;;;;;4.87;68.27441;93939.01;;;;
2019/04/05 01:04:54;;;;;;;11.3;9.550001;;;;;;;4.87;68.27441;93939.01;;;;
2019/04/05 01:05:55;;;;;;;10.5;9.1;;;;;;;4.79;67.7334;93916.63;;;;
2019/04/05 01:06:57;;;;;;;10.5;9.1;;;;;;;4.79;67.7334;93916.63;;;;
2019/04/05 01:07:58;;;;;;;10.5;9.1;;;;;;;4.79;67.7334;93916.63;;;;
2019/04/05 01:08:59;;;;;;;10.5;9.1;;;;;;;4.79;67.7334;93916.63;;;;
2019/04/05 01:10:00;;;;;;;10.5;9.1;;;;;;;4.79;67.7334;93916.63;;;;
2019/04/05 01:11:01;;;;;;;10.5;9.1;;;;;;;4.79;67.7334;93916.63;;;;
2019/04/05 01:12:03;;;;;;;10.5;9.1;;;;;;;4.79;67.7334;93916.63;;;;
2019/04/05 01:13:04;;;;;;;10.5;9.1;;;;;;;4.79;67.7334;93916.63;;;;
2019/04/05 01:14:05;;;;;;;10.5;9.1;;;;;;;4.79;67.7334;93916.63;;;;
2019/04/05 01:15:06;;;;;;;10.5;9.1;;;;;;;4.79;67.7334;93916.63;;;;
2019/04/05 01:16:10;;;;;;;10.5;9.1;;;;;;;4.79;67.7334;93916.63;;;;
2019/04/05 01:17:11;;;;;;;10.5;9.1;;;;;;;4.79;67.7334;93916.63;;;;
2019/04/05 01:18:12;;;;;;;10.5;9.1;;;;;;;4.79;67.7334;93916.63;;;;
2019/04/05 01:19:14;;;;;;;10.5;9.1;;;;;;;4.79;67.7334;93916.63;;;;
2019/04/05 01:20:15;;;;;;;9.549999;8.199999;;;;;;;4.86;67.55371;93920.95;;;;
2019/04/05 01:21:16;;;;;;;9.549999;8.199999;;;;;;;4.86;67.55371;93920.95;;;;
2019/04/05 01:22:18;;;;;;;9.549999;8.199999;;;;;;;4.86;67.55371;93920.95;;;;
2019/04/05 01:23:21;;;;;;;9.549999;8.199999;;;;;;;4.86;67.55371;93920.95;;;;
2019/04/05 01:24:22;;;;;;;9.549999;8.199999;;;;;;;4.86;67.55371;93920.95;;;;
2019/04/05 01:25:24;;;;;;;9.549999;8.199999;;;;;;;4.86;67.55371;93920.95;;;;
2019/04/05 01:26:25;;;;;;;9.549999;8.199999;;;;;;;4.86;67.55371;93920.95;;;;
2019/04/05 01:27:26;;;;;;;9.549999;8.199999;;;;;;;4.86;67.55371;93920.95;;;;
2019/04/05 01:28:27;;;;;;;9.549999;8.199999;;;;;;;4.86;67.55371;93920.95;;;;
2019/04/05 01:29:29;;;;;;;9.549999;8.199999;;;;;;;4.86;67.55371;93920.95;;;;
2019/04/05 01:30:30;;;;;;;9.15;8.099998;;;;;;;4.84;67.57129;93931.05;;;;
2019/04/05 01:31:31;;;;;;;9.15;8.099998;;;;;;;4.84;67.57129;93931.05;;;;
2019/04/05 01:32:33;;;;;;;9.15;8.099998;;;;;;;4.84;67.57129;93931.05;;;;
2019/04/05 01:33:34;;;;;;;9.15;8.099998;;;;;;;4.84;67.57129;93931.05;;;;
2019/04/05 01:34:35;;;;;;;9.15;8.099998;;;;;;;4.84;67.57129;93931.05;;;;
2019/04/05 01:35:36;;;;;;;9.15;8.099998;;;;;;;4.84;67.57129;93931.05;;;;
2019/04/05 01:36:38;;;;;;;9.15;8.099998;;;;;;;4.84;67.57129;93931.05;;;;
2019/04/05 01:37:39;;;;;;;9.15;8.099998;;;;;;;4.84;67.57129;93931.05;;;;
2019/04/05 01:38:40;;;;;;;9.15;8.099998;;;;;;;4.84;67.57129;93931.05;;;;
2019/04/05 01:39:41;;;;;;;9.15;8.099998;;;;;;;4.84;67.57129;93931.05;;;;
2019/04/05 01:40:42;;;;;;;10.35;8.299999;;;;;;;4.76;67.48535;93922.34;;;;
2019/04/05 01:41:44;;;;;;;10.35;8.299999;;;;;;;4.76;67.48535;93922.34;;;;
2019/04/05 01:42:45;;;;;;;10.35;8.299999;;;;;;;4.76;67.48535;93922.34;;;;
2019/04/05 01:43:46;;;;;;;10.35;8.299999;;;;;;;4.76;67.48535;93922.34;;;;
2019/04/05 01:44:47;;;;;;;10.35;8.299999;;;;;;;4.76;67.48535;93922.34;;;;
2019/04/05 01:45:49;;;;;;;10.35;8.299999;;;;;;;4.76;67.48535;93922.34;;;;
2019/04/05 01:46:50;;;;;;;10.35;8.299999;;;;;;;4.76;67.48535;93922.34;;;;
2019/04/05 01:47:51;;;;;;;10.35;8.299999;;;;;;;4.76;67.48535;93922.34;;;;
2019/04/05 01:48:52;;;;;;;10.35;8.299999;;;;;;;4.76;67.48535;93922.34;;;;
2019/04/05 01:49:54;;;;;;;10.35;8.299999;;;;;;;4.76;67.48535;93922.34;;;;
2019/04/05 01:50:55;;;;;;;10.35;8.299999;;;;;;;4.76;67.48535;93922.34;;;;
2019/04/05 01:51:56;;;;;;;10.35;8.299999;;;;;;;4.76;67.48535;93922.34;;;;
2019/04/05 01:52:57;;;;;;;10.35;8.299999;;;;;;;4.76;67.48535;93922.34;;;;
2019/04/05 01:53:58;;;;;;;10.35;8.299999;;;;;;;4.76;67.48535;93922.34;;;;
2019/04/05 01:54:59;;;;;;;10.35;8.299999;;;;;;;4.76;67.48535;93922.34;;;;
2019/04/05 01:56:01;;;;;;;10.35;8.299999;;;;;;;4.76;67.48535;93922.34;;;;
2019/04/05 01:57:02;;;;;;;10.35;8.299999;;;;;;;4.76;67.48535;93922.34;;;;
2019/04/05 01:58:03;;;;;;;10.35;8.299999;;;;;;;4.76;67.48535;93922.34;;;;
2019/04/05 01:59:04;;;;;;;10.35;8.299999;;;;;;;4.76;67.48535;93922.34;;;;
2019/04/05 02:00:06;;;;;;;10.35;8.299999;;;;;;;4.76;67.48535;93922.34;;;;
2019/04/05 02:01:08;;;;;;;10.35;8.299999;;;;;;;4.76;67.48535;93922.34;;;;
2019/04/05 02:02:09;;;;;;;10.35;8.299999;;;;;;;4.76;67.48535;93922.34;;;;
2019/04/05 02:03:11;;;;;;;10.35;8.299999;;;;;;;4.76;67.48535;93922.34;;;;
2019/04/05 02:04:12;;;;;;;10.35;8.299999;;;;;;;4.76;67.48535;93922.34;;;;
2019/04/05 02:05:13;;;;;;;10.35;8.299999;;;;;;;4.76;67.48535;93922.34;;;;
2019/04/05 02:06:14;;;;;;;10.35;8.299999;;;;;;;4.76;67.48535;93922.34;;;;
2019/04/05 02:07:15;;;;;;;10.35;8.299999;;;;;;;4.76;67.48535;93922.34;;;;
2019/04/05 02:08:17;;;;;;;10.35;8.299999;;;;;;;4.76;67.48535;93922.34;;;;
2019/04/05 02:09:18;;;;;;;10.35;8.299999;;;;;;;4.76;67.48535;93922.34;;;;
2019/04/05 02:10:19;;;;;;;10.35;8.299999;;;;;;;4.76;67.48535;93922.34;;;;
2019/04/05 02:11:20;;;;;;;10.35;8.299999;;;;;;;4.76;67.48535;93922.34;;;;
2019/04/05 02:12:22;;;;;;;12.2;9.5;;;;;;;4.76;67.26172;93938.9;;;;
2019/04/05 02:13:23;;;;;;;12.2;9.5;;;;;;;4.76;67.26172;93938.9;;;;
2019/04/05 02:14:24;;;;;;;12.2;9.5;;;;;;;4.76;67.26172;93938.9;;;;
2019/04/05 02:15:26;;;;;;;12.2;9.5;;;;;;;4.76;67.26172;93938.9;;;;
2019/04/05 02:16:28;;;;;;;12.2;9.5;;;;;;;4.76;67.26172;93938.9;;;;
2019/04/05 02:17:30;;;;;;;12.2;9.5;;;;;;;4.76;67.26172;93938.9;;;;
2019/04/05 02:18:31;;;;;;;12.2;9.5;;;;;;;4.76;67.26172;93938.9;;;;
2019/04/05 02:19:32;;;;;;;12.2;9.5;;;;;;;4.76;67.26172;93938.9;;;;
2019/04/05 02:20:33;;;;;;;12.2;9.5;;;;;;;4.76;67.26172;93938.9;;;;
2019/04/05 02:21:34;;;;;;;12.2;9.5;;;;;;;4.76;67.26172;93938.9;;;;
2019/04/05 02:22:36;;;;;;;12.2;9.5;;;;;;;4.76;67.26172;93938.9;;;;
2019/04/05 02:23:37;;;;;;;12.1;9.450001;;;;;;;4.71;67.13965;93936.91;;;;
2019/04/05 02:24:38;;;;;;;12.1;9.450001;;;;;;;4.71;67.13965;93936.91;;;;
2019/04/05 02:25:39;;;;;;;12.1;9.450001;;;;;;;4.71;67.13965;93936.91;;;;
2019/04/05 02:26:41;;;;;;;12.1;9.450001;;;;;;;4.71;67.13965;93936.91;;;;
2019/04/05 02:27:42;;;;;;;12.1;9.450001;;;;;;;4.71;67.13965;93936.91;;;;
2019/04/05 02:28:43;;;;;;;12.1;9.450001;;;;;;;4.71;67.13965;93936.91;;;;
2019/04/05 02:29:44;;;;;;;12.1;9.450001;;;;;;;4.71;67.13965;93936.91;;;;
2019/04/05 02:30:46;;;;;;;12.1;9.450001;;;;;;;4.71;67.13965;93936.91;;;;
2019/04/05 02:31:47;;;;;;;12.1;9.450001;;;;;;;4.71;67.13965;93936.91;;;;
2019/04/05 02:32:48;;;;;;;12.1;9.450001;;;;;;;4.71;67.13965;93936.91;;;;
2019/04/05 02:33:49;;;;;;;12.6;9.350001;;;;;;;4.76;67.05176;93943.73;;;;
2019/04/05 02:34:51;;;;;;;12.6;9.350001;;;;;;;4.76;67.05176;93943.73;;;;
2019/04/05 02:35:52;;;;;;;12.6;9.350001;;;;;;;4.76;67.05176;93943.73;;;;
2019/04/05 02:36:53;;;;;;;12.6;9.350001;;;;;;;4.76;67.05176;93943.73;;;;
2019/04/05 02:37:54;;;;;;;12.6;9.350001;;;;;;;4.76;67.05176;93943.73;;;;
2019/04/05 02:38:56;;;;;;;12.6;9.350001;;;;;;;4.76;67.05176;93943.73;;;;
2019/04/05 02:39:57;;;;;;;12.6;9.350001;;;;;;;4.76;67.05176;93943.73;;;;
2019/04/05 02:40:58;;;;;;;12.6;9.350001;;;;;;;4.76;67.05176;93943.73;;;;
2019/04/05 02:42:00;;;;;;;12.6;9.350001;;;;;;;4.76;67.05176;93943.73;;;;
2019/04/05 02:43:01;;;;;;;12.6;9.350001;;;;;;;4.76;67.05176;93943.73;;;;
2019/04/05 02:44:02;;;;;;;12.6;9.350001;;;;;;;4.76;67.05176;93943.73;;;;
2019/04/05 02:45:04;;;;;;;11.55;8.950002;;;;;;;4.76;66.88086;93946.51;;;;
2019/04/05 02:46:05;;;;;;;11.55;8.950002;;;;;;;4.76;66.88086;93946.51;;;;
2019/04/05 02:47:06;;;;;;;11.55;8.950002;;;;;;;4.76;66.88086;93946.51;;;;
2019/04/05 02:48:08;;;;;;;11.55;8.950002;;;;;;;4.76;66.88086;93946.51;;;;
2019/04/05 02:49:09;;;;;;;11.55;8.950002;;;;;;;4.76;66.88086;93946.51;;;;
2019/04/05 02:50:10;;;;;;;11.55;8.950002;;;;;;;4.76;66.88086;93946.51;;;;
2019/04/05 02:51:11;;;;;;;11.55;8.950002;;;;;;;4.76;66.88086;93946.51;;;;
2019/04/05 02:52:12;;;;;;;11.55;8.950002;;;;;;;4.76;66.88086;93946.51;;;;
2019/04/05 02:53:14;;;;;;;11.55;8.950002;;;;;;;4.76;66.88086;93946.51;;;;
2019/04/05 02:54:15;;;;;;;11.55;8.950002;;;;;;;4.76;66.88086;93946.51;;;;
2019/04/05 02:55:16;;;;;;;11.4;9.3;;;;;;;4.78;67.11719;93955.11;;;;
2019/04/05 02:56:17;;;;;;;11.4;9.3;;;;;;;4.78;67.11719;93955.11;;;;
2019/04/05 02:57:18;;;;;;;11.4;9.3;;;;;;;4.78;67.11719;93955.11;;;;
2019/04/05 02:58:20;;;;;;;11.4;9.3;;;;;;;4.78;67.11719;93955.11;;;;
2019/04/05 02:59:21;;;;;;;11.4;9.3;;;;;;;4.78;67.11719;93955.11;;;;
2019/04/05 03:00:23;;;;;;;11.4;9.3;;;;;;;4.78;67.11719;93955.11;;;;
2019/04/05 03:01:24;;;;;;;11.4;9.3;;;;;;;4.78;67.11719;93955.11;;;;
2019/04/05 03:02:25;;;;;;;11.4;9.3;;;;;;;4.78;67.11719;93955.11;;;;
2019/04/05 03:03:26;;;;;;;11.4;9.3;;;;;;;4.78;67.11719;93955.11;;;;
2019/04/05 03:04:28;;;;;;;11.4;9.3;;;;;;;4.78;67.11719;93955.11;;;;
2019/04/05 03:05:29;;;;;;;11.4;9.3;;;;;;;4.78;67.11719;93955.11;;;;
2019/04/05 03:06:30;;;;;;;11.4;9.3;;;;;;;4.78;67.11719;93955.11;;;;
2019/04/05 03:07:31;;;;;;;11.4;9.3;;;;;;;4.78;67.11719;93955.11;;;;
2019/04/05 03:08:32;;;;;;;11.4;9.3;;;;;;;4.78;67.11719;93955.11;;;;
2019/04/05 03:09:33;;;;;;;11.4;9.3;;;;;;;4.78;67.11719;93955.11;;;;
2019/04/05 03:10:35;;;;;;;11.4;9.3;;;;;;;4.78;67.11719;93955.11;;;;
2019/04/05 03:12:05;;;;;;;11.4;9.3;;;;;;;4.78;67.11719;93955.11;;;;
2019/04/05 03:13:06;;;;;;;11.4;9.3;;;;;;;4.78;67.11719;93955.11;;;;
2019/04/05 03:14:07;;;;;;;11.4;9.3;;;;;;;4.78;67.11719;93955.11;;;;
2019/04/05 03:15:09;;;;;;;11.4;9.3;;;;;;;4.78;67.11719;93955.11;;;;
2019/04/05 03:16:10;;;;;;;12.15;9.7;;;;;;;4.76;66.94629;93951.75;;;;
2019/04/05 03:17:13;;;;;;;12.15;9.7;;;;;;;4.76;66.94629;93951.75;;;;
2019/04/05 03:18:15;;;;;;;12.15;9.7;;;;;;;4.76;66.94629;93951.75;;;;
2019/04/05 03:19:16;;;;;;;12.15;9.7;;;;;;;4.76;66.94629;93951.75;;;;
2019/04/05 03:20:19;;;;;;;12.15;9.7;;;;;;;4.76;66.94629;93951.75;;;;
2019/04/05 03:21:20;;;;;;;12.15;9.7;;;;;;;4.76;66.94629;93951.75;;;;
2019/04/05 03:22:21;;;;;;;12.15;9.7;;;;;;;4.76;66.94629;93951.75;;;;
2019/04/05 03:23:23;;;;;;;12.15;9.7;;;;;;;4.76;66.94629;93951.75;;;;
2019/04/05 03:24:24;;;;;;;12.15;9.7;;;;;;;4.76;66.94629;93951.75;;;;
2019/04/05 03:25:27;;;;;;;12.15;9.7;;;;;;;4.76;66.94629;93951.75;;;;
2019/04/05 03:26:28;;;;;;;12.15;9.7;;;;;;;4.76;66.94629;93951.75;;;;
2019/04/05 03:27:32;;;;;;;12.15;9.7;;;;;;;4.76;66.94629;93951.75;;;;
2019/04/05 03:28:33;;;;;;;12.15;9.7;;;;;;;4.76;66.94629;93951.75;;;;
2019/04/05 03:29:35;;;;;;;12.15;9.7;;;;;;;4.76;66.94629;93951.75;;;;
2019/04/05 03:30:36;;;;;;;12.15;9.7;;;;;;;4.76;66.94629;93951.75;;;;
2019/04/05 03:31:37;;;;;;;12.15;9.7;;;;;;;4.76;66.94629;93951.75;;;;
2019/04/05 03:32:38;;;;;;;12.15;9.7;;;;;;;4.76;66.94629;93951.75;;;;
2019/04/05 03:33:39;;;;;;;12.15;9.7;;;;;;;4.76;66.94629;93951.75;;;;
2019/04/05 03:34:40;;;;;;;12.15;9.7;;;;;;;4.76;66.94629;93951.75;;;;
2019/04/05 03:35:42;;;;;;;12.15;9.7;;;;;;;4.76;66.94629;93951.75;;;;
2019/04/05 03:36:43;;;;;;;12.15;9.7;;;;;;;4.76;66.94629;93951.75;;;;
2019/04/05 03:37:44;;;;;;;12.35;9.9;;;;;;;4.82;66.65918;93953.06;;;;
2019/04/05 03:38:45;;;;;;;12.35;9.9;;;;;;;4.82;66.65918;93953.06;;;;
2019/04/05 03:39:46;;;;;;;12.35;9.9;;;;;;;4.82;66.65918;93953.06;;;;
2019/04/05 03:40:48;;;;;;;12.35;9.9;;;;;;;4.82;66.65918;93953.06;;;;
2019/04/05 03:41:49;;;;;;;12.35;9.9;;;;;;;4.82;66.65918;93953.06;;;;
2019/04/05 03:42:51;;;;;;;12.35;9.9;;;;;;;4.82;66.65918;93953.06;;;;
2019/04/05 03:43:52;;;;;;;12.35;9.9;;;;;;;4.82;66.65918;93953.06;;;;
2019/04/05 03:44:53;;;;;;;12.35;9.9;;;;;;;4.82;66.65918;93953.06;;;;
2019/04/05 03:45:54;;;;;;;12.35;9.9;;;;;;;4.82;66.65918;93953.06;;;;
2019/04/05 03:46:56;;;;;;;12.35;9.9;;;;;;;4.82;66.65918;93953.06;;;;
2019/04/05 03:47:57;;;;;;;14.1;10.65;;;;;;;4.74;66.79492;93952.09;;;;
2019/04/05 03:48:58;;;;;;;14.1;10.65;;;;;;;4.74;66.79492;93952.09;;;;
2019/04/05 03:49:59;;;;;;;14.1;10.65;;;;;;;4.74;66.79492;93952.09;;;;
2019/04/05 03:51:01;;;;;;;14.1;10.65;;;;;;;4.74;66.79492;93952.09;;;;
2019/04/05 03:52:02;;;;;;;14.1;10.65;;;;;;;4.74;66.79492;93952.09;;;;
2019/04/05 03:53:04;;;;;;;14.1;10.65;;;;;;;4.74;66.79492;93952.09;;;;
2019/04/05 03:54:05;;;;;;;14.1;10.65;;;;;;;4.74;66.79492;93952.09;;;;
2019/04/05 03:55:06;;;;;;;14.1;10.65;;;;;;;4.74;66.79492;93952.09;;;;
2019/04/05 03:56:08;;;;;;;14.1;10.65;;;;;;;4.74;66.79492;93952.09;;;;
2019/04/05 03:57:09;;;;;;;14.1;10.65;;;;;;;4.74;66.79492;93952.09;;;;
2019/04/05 03:58:10;;;;;;;14.1;10.65;;;;;;;4.74;66.79492;93952.09;;;;
2019/04/05 03:59:11;;;;;;;12.55;10.05;;;;;;;4.77;66.78906;93964.58;;;;
2019/04/05 04:00:12;;;;;;;12.55;10.05;;;;;;;4.77;66.78906;93964.58;;;;
2019/04/05 04:01:13;;;;;;;12.55;10.05;;;;;;;4.77;66.78906;93964.58;;;;
2019/04/05 04:02:15;;;;;;;12.55;10.05;;;;;;;4.77;66.78906;93964.58;;;;
2019/04/05 04:03:16;;;;;;;12.55;10.05;;;;;;;4.77;66.78906;93964.58;;;;
2019/04/05 04:04:17;;;;;;;12.55;10.05;;;;;;;4.77;66.78906;93964.58;;;;
2019/04/05 04:05:18;;;;;;;12.55;10.05;;;;;;;4.77;66.78906;93964.58;;;;
2019/04/05 04:06:19;;;;;;;12.55;10.05;;;;;;;4.77;66.78906;93964.58;;;;
2019/04/05 04:07:21;;;;;;;12.55;10.05;;;;;;;4.77;66.78906;93964.58;;;;
2019/04/05 04:08:22;;;;;;;12.55;10.05;;;;;;;4.77;66.78906;93964.58;;;;
2019/04/05 04:09:23;;;;;;;12.95;9.949999;;;;;;;4.74;66.76172;93936.56;;;;
2019/04/05 04:10:24;;;;;;;12.95;9.949999;;;;;;;4.74;66.76172;93936.56;;;;
2019/04/05 04:11:25;;;;;;;12.95;9.949999;;;;;;;4.74;66.76172;93936.56;;;;
2019/04/05 04:12:26;;;;;;;12.95;9.949999;;;;;;;4.74;66.76172;93936.56;;;;
2019/04/05 04:13:28;;;;;;;12.95;9.949999;;;;;;;4.74;66.76172;93936.56;;;;
2019/04/05 04:14:29;;;;;;;12.95;9.949999;;;;;;;4.74;66.76172;93936.56;;;;
2019/04/05 04:15:30;;;;;;;12.95;9.949999;;;;;;;4.74;66.76172;93936.56;;;;
2019/04/05 04:16:31;;;;;;;12.95;9.949999;;;;;;;4.74;66.76172;93936.56;;;;
2019/04/05 04:17:32;;;;;;;12.95;9.949999;;;;;;;4.74;66.76172;93936.56;;;;
2019/04/05 04:18:34;;;;;;;12.95;9.949999;;;;;;;4.74;66.76172;93936.56;;;;
2019/04/05 04:19:35;;;;;;;12.95;9.949999;;;;;;;4.74;66.76172;93936.56;;;;
2019/04/05 04:20:36;;;;;;;13.3;10.15;;;;;;;4.77;66.78906;93950.8;;;;
2019/04/05 04:21:43;;;;;;;13.3;10.15;;;;;;;4.77;66.78906;93950.8;;;;
2019/04/05 04:23:35;;;;;;;13.3;10.15;;;;;;;4.77;66.78906;93950.8;;;;
2019/04/05 04:24:37;;;;;;;13.3;10.15;;;;;;;4.77;66.78906;93950.8;;;;
2019/04/05 04:25:38;;;;;;;13.3;10.15;;;;;;;4.77;66.78906;93950.8;;;;
2019/04/05 04:26:39;;;;;;;13.3;10.15;;;;;;;4.77;66.78906;93950.8;;;;
2019/04/05 04:27:40;;;;;;;13.3;10.15;;;;;;;4.77;66.78906;93950.8;;;;
2019/04/05 04:28:41;;;;;;;13.3;10.15;;;;;;;4.77;66.78906;93950.8;;;;
2019/04/05 04:29:42;;;;;;;13.3;10.15;;;;;;;4.77;66.78906;93950.8;;;;
2019/04/05 04:30:44;;;;;;;13.85;10.5;;;;;;;4.73;66.94043;93957.14;;;;
2019/04/05 04:31:45;;;;;;;13.85;10.5;;;;;;;4.73;66.94043;93957.14;;;;
2019/04/05 04:32:46;;;;;;;13.85;10.5;;;;;;;4.73;66.94043;93957.14;;;;
2019/04/05 04:33:47;;;;;;;13.85;10.5;;;;;;;4.73;66.94043;93957.14;;;;
2019/04/05 04:34:48;;;;;;;13.85;10.5;;;;;;;4.73;66.94043;93957.14;;;;
2019/04/05 04:35:50;;;;;;;13.85;10.5;;;;;;;4.73;66.94043;93957.14;;;;
2019/04/05 04:36:51;;;;;;;13.85;10.5;;;;;;;4.73;66.94043;93957.14;;;;
2019/04/05 04:37:52;;;;;;;13.85;10.5;;;;;;;4.73;66.94043;93957.14;;;;
2019/04/05 04:38:53;;;;;;;13.85;10.5;;;;;;;4.73;66.94043;93957.14;;;;
2019/04/05 04:39:55;;;;;;;13.85;10.5;;;;;;;4.73;66.94043;93957.14;;;;
2019/04/05 04:40:56;;;;;;;13.65;10.35;;;;;;;4.75;66.88086;93955.45;;;;
2019/04/05 04:41:57;;;;;;;13.65;10.35;;;;;;;4.75;66.88086;93955.45;;;;
2019/04/05 04:42:58;;;;;;;13.65;10.35;;;;;;;4.75;66.88086;93955.45;;;;
2019/04/05 04:43:59;;;;;;;13.65;10.35;;;;;;;4.75;66.88086;93955.45;;;;
2019/04/05 04:45:00;;;;;;;13.65;10.35;;;;;;;4.75;66.88086;93955.45;;;;
2019/04/05 04:46:02;;;;;;;13.65;10.35;;;;;;;4.75;66.88086;93955.45;;;;
2019/04/05 04:47:03;;;;;;;13.65;10.35;;;;;;;4.75;66.88086;93955.45;;;;
2019/04/05 04:48:04;;;;;;;13.65;10.35;;;;;;;4.75;66.88086;93955.45;;;;
2019/04/05 04:49:05;;;;;;;13.65;10.35;;;;;;;4.75;66.88086;93955.45;;;;
2019/04/05 04:50:06;;;;;;;13.65;10.35;;;;;;;4.75;66.88086;93955.45;;;;
2019/04/05 04:51:08;;;;;;;13.65;10.35;;;;;;;4.75;66.88086;93955.45;;;;
2019/04/05 04:52:09;;;;;;;14.4;10.3;;;;;;;4.71;67.0127;93967.66;;;;
2019/04/05 04:53:11;;;;;;;14.4;10.3;;;;;;;4.71;67.0127;93967.66;;;;
2019/04/05 04:54:12;;;;;;;14.4;10.3;;;;;;;4.71;67.0127;93967.66;;;;
2019/04/05 04:55:13;;;;;;;14.4;10.3;;;;;;;4.71;67.0127;93967.66;;;;
2019/04/05 04:56:14;;;;;;;14.4;10.3;;;;;;;4.71;67.0127;93967.66;;;;
2019/04/05 04:57:15;;;;;;;14.4;10.3;;;;;;;4.71;67.0127;93967.66;;;;
2019/04/05 04:58:16;;;;;;;14.4;10.3;;;;;;;4.71;67.0127;93967.66;;;;
2019/04/05 04:59:17;;;;;;;14.4;10.3;;;;;;;4.71;67.0127;93967.66;;;;
2019/04/05 05:00:19;;;;;;;14.4;10.3;;;;;;;4.71;67.0127;93967.66;;;;
2019/04/05 05:01:20;;;;;;;14.4;10.3;;;;;;;4.71;67.0127;93967.66;;;;
2019/04/05 05:02:21;;;;;;;13.5;10.25;;;;;;;4.74;66.99609;93965.88;;;;
2019/04/05 05:03:22;;;;;;;13.5;10.25;;;;;;;4.74;66.99609;93965.88;;;;
2019/04/05 05:04:23;;;;;;;13.5;10.25;;;;;;;4.74;66.99609;93965.88;;;;
2019/04/05 05:05:24;;;;;;;13.5;10.25;;;;;;;4.74;66.99609;93965.88;;;;
2019/04/05 05:06:26;;;;;;;13.5;10.25;;;;;;;4.74;66.99609;93965.88;;;;
2019/04/05 05:07:27;;;;;;;13.5;10.25;;;;;;;4.74;66.99609;93965.88;;;;
2019/04/05 05:08:28;;;;;;;13.5;10.25;;;;;;;4.74;66.99609;93965.88;;;;
2019/04/05 05:09:29;;;;;;;13.5;10.25;;;;;;;4.74;66.99609;93965.88;;;;
2019/04/05 05:10:30;;;;;;;13.5;10.25;;;;;;;4.74;66.99609;93965.88;;;;
2019/04/05 05:11:32;;;;;;;13.5;10.25;;;;;;;4.74;66.99609;93965.88;;;;
2019/04/05 05:12:33;;;;;;;13.5;10.25;;;;;;;4.74;66.99609;93965.88;;;;
2019/04/05 05:13:34;;;;;;;16.9;11.4;;;;;;;4.73;66.91895;93962.48;;;;
2019/04/05 05:14:35;;;;;;;16.9;11.4;;;;;;;4.73;66.91895;93962.48;;;;
2019/04/05 05:15:36;;;;;;;16.9;11.4;;;;;;;4.73;66.91895;93962.48;;;;
2019/04/05 05:16:38;;;;;;;16.9;11.4;;;;;;;4.73;66.91895;93962.48;;;;
2019/04/05 05:17:39;;;;;;;16.9;11.4;;;;;;;4.73;66.91895;93962.48;;;;
2019/04/05 05:18:40;;;;;;;16.9;11.4;;;;;;;4.73;66.91895;93962.48;;;;
2019/04/05 05:19:41;;;;;;;16.9;11.4;;;;;;;4.73;66.91895;93962.48;;;;
2019/04/05 05:20:42;;;;;;;16.9;11.4;;;;;;;4.73;66.91895;93962.48;;;;
2019/04/05 05:21:43;;;;;;;16.9;11.4;;;;;;;4.73;66.91895;93962.48;;;;
2019/04/05 05:22:44;;;;;;;16.9;11.4;;;;;;;4.73;66.91895;93962.48;;;;
2019/04/05 05:23:46;;;;;;;16.9;11.4;;;;;;;4.73;66.91895;93962.48;;;;
2019/04/05 05:24:47;;;;;;;16.9;11.4;;;;;;;4.73;66.91895;93962.48;;;;
2019/04/05 05:25:48;;;;;;;16.9;11.4;;;;;;;4.73;66.91895;93962.48;;;;
2019/04/05 05:26:49;;;;;;;16.9;11.4;;;;;;;4.73;66.91895;93962.48;;;;
2019/04/05 05:27:50;;;;;;;16.9;11.4;;;;;;;4.73;66.91895;93962.48;;;;
2019/04/05 05:28:51;;;;;;;16.9;11.4;;;;;;;4.73;66.91895;93962.48;;;;
2019/04/05 05:29:53;;;;;;;16.9;11.4;;;;;;;4.73;66.91895;93962.48;;;;
2019/04/05 05:30:54;;;;;;;16.9;11.4;;;;;;;4.73;66.91895;93962.48;;;;
2019/04/05 05:31:55;;;;;;;16.9;11.4;;;;;;;4.73;66.91895;93962.48;;;;
2019/04/05 05:32:56;;;;;;;16.9;11.4;;;;;;;4.73;66.91895;93962.48;;;;
2019/04/05 05:33:57;;;;;;;17.4;11.85;;;;;;;4.8;67.0791;93978.3;;;;
2019/04/05 05:34:58;;;;;;;17.4;11.85;;;;;;;4.8;67.0791;93978.3;;;;
2019/04/05 05:36:00;;;;;;;17.4;11.85;;;;;;;4.8;67.0791;93978.3;;;;
2019/04/05 05:37:01;;;;;;;17.4;11.85;;;;;;;4.8;67.0791;93978.3;;;;
2019/04/05 05:38:02;;;;;;;17.4;11.85;;;;;;;4.8;67.0791;93978.3;;;;
2019/04/05 05:39:04;;;;;;;17.4;11.85;;;;;;;4.8;67.0791;93978.3;;;;
2019/04/05 05:40:06;;;;;;;17.4;11.85;;;;;;;4.8;67.0791;93978.3;;;;
2019/04/05 05:41:07;;;;;;;17.4;11.85;;;;;;;4.8;67.0791;93978.3;;;;
2019/04/05 05:42:08;;;;;;;17.4;11.85;;;;;;;4.8;67.0791;93978.3;;;;
2019/04/05 05:43:09;;;;;;;17.4;11.85;;;;;;;4.8;67.0791;93978.3;;;;
2019/04/05 05:44:10;;;;;;;17.4;11.85;;;;;;;4.8;67.0791;93978.3;;;;